Time;durP1;ratioP1;P1;durP2;ratioP2;P2;SDS_P1;SDS_P2;PMS_P1;PMS_P2;Temp;Humidity;BMP_temperature;BMP_pressure;BME280_temperature;BME280_humidity;BME280_pressure;Samples;Min_cycle;Max_cycle;Signal;HPM_P1;HPM_P2
2022/06/05 00:09:43;;;;;;;4.93;3.90;;;;;;;23.92;58.60;100412.88;20790986;27;97086;-80
2022/06/05 00:19:48;;;;;;;9.02;4.35;;;;;;;23.93;58.55;100416.38;20798040;27;100886;-80
2022/06/05 00:29:48;;;;;;;8.75;5.72;;;;;;;23.87;58.85;100409.78;20802149;27;100556;-79
2022/06/05 00:39:52;;;;;;;8.45;5.32;;;;;;;23.90;58.55;100391.00;20800397;27;99169;-79
2022/06/05 00:50:04;;;;;;;6.70;5.03;;;;;;;23.81;58.84;100392.69;20784593;27;97342;-79
2022/06/05 01:00:13;;;;;;;;;;;;;;;23.70;58.82;100391.94;20789498;27;99423;-79
2022/06/05 01:10:15;;;;;;;8.35;5.65;;;;;;;23.42;59.53;100381.97;20782516;27;97080;-79
2022/06/05 01:20:29;;;;;;;9.35;6.13;;;;;;;23.62;58.98;100379.38;20790721;27;97032;-80
2022/06/05 01:30:33;;;;;;;8.13;5.47;;;;;;;23.44;59.62;100385.31;20793056;27;98860;-79
2022/06/05 01:40:45;;;;;;;10.65;6.15;;;;;;;23.74;58.50;100385.41;20787339;27;98170;-79
2022/06/05 01:50:50;;;;;;;6.32;5.30;;;;;;;23.62;58.70;100390.81;20778819;27;97468;-80
2022/06/05 02:00:54;;;;;;;6.15;4.30;;;;;;;23.54;58.84;100381.88;20806180;27;97624;-80
2022/06/05 02:11:09;;;;;;;10.63;6.25;;;;;;;23.43;59.27;100380.19;20790926;27;97087;-80
2022/06/05 02:21:12;;;;;;;7.00;5.47;;;;;;;23.26;59.84;100385.09;20789941;27;100739;-81
2022/06/05 02:31:47;;;;;;;12.30;7.68;;;;;;;23.35;59.65;100399.31;20814426;27;100139;-80
2022/06/05 02:42:34;;;;;;;9.10;7.13;;;;;;;23.25;60.07;100399.28;20778527;27;99921;-79
2022/06/05 02:52:35;;;;;;;8.80;5.80;;;;;;;23.29;59.84;100390.13;20698247;27;97506;-79
2022/06/05 03:12:56;;;;;;;7.78;4.35;;;;;;;23.40;59.38;100393.66;20802156;27;97526;-80
2022/06/05 03:22:58;;;;;;;8.40;4.80;;;;;;;23.30;59.34;100397.09;20800367;27;97657;-80
2022/06/05 03:32:58;;;;;;;6.60;4.73;;;;;;;23.43;59.13;100418.00;20781025;27;97415;-80
2022/06/05 03:43:00;;;;;;;6.30;4.60;;;;;;;23.49;58.96;100427.22;20793183;27;96934;-79
2022/06/05 03:53:00;;;;;;;11.07;7.47;;;;;;;23.34;59.41;100450.50;20796706;27;97598;-80
2022/06/05 04:03:03;;;;;;;13.43;8.50;;;;;;;23.31;59.65;100471.91;20773028;27;97230;-80
2022/06/05 04:13:04;;;;;;;13.68;8.98;;;;;;;23.43;59.08;100473.50;20789634;27;97534;-80
2022/06/05 04:23:05;;;;;;;13.27;9.77;;;;;;;23.50;58.93;100494.97;20764770;27;97570;-79
2022/06/05 04:33:07;;;;;;;13.32;9.32;;;;;;;23.46;59.20;100494.38;20791611;27;102160;-80
2022/06/05 04:43:09;;;;;;;12.77;9.02;;;;;;;23.46;58.93;100491.75;20784518;27;100757;-79
2022/06/05 04:53:09;;;;;;;12.25;9.05;;;;;;;23.54;58.54;100499.00;20760562;27;98410;-79
2022/06/05 05:03:10;;;;;;;11.30;7.68;;;;;;;23.61;58.50;100508.09;20782356;27;99711;-78
2022/06/05 05:13:10;;;;;;;9.27;6.30;;;;;;;23.61;58.27;100545.09;20771369;27;99813;-79
2022/06/05 05:23:11;;;;;;;7.32;5.03;;;;;;;23.69;57.88;100555.00;20793010;27;97731;-78
2022/06/05 05:33:13;;;;;;;7.25;5.15;;;;;;;23.59;57.57;100564.69;20810579;27;97148;-79
2022/06/05 05:43:13;;;;;;;9.30;5.57;;;;;;;23.63;56.74;100566.94;20773271;27;98652;-77
2022/06/05 05:53:14;;;;;;;5.88;4.93;;;;;;;23.56;56.73;100557.88;20764458;27;97633;-79
2022/06/05 06:03:14;;;;;;;6.70;4.40;;;;;;;23.71;56.81;100545.13;20769540;27;97270;-79
2022/06/05 06:13:15;;;;;;;5.97;5.00;;;;;;;23.66;55.97;100550.00;20780808;27;97173;-79
2022/06/05 06:23:16;;;;;;;5.60;5.07;;;;;;;23.63;55.46;100527.31;20779995;27;99862;-77
2022/06/05 06:33:17;;;;;;;6.85;6.05;;;;;;;23.66;55.46;100529.66;20783040;27;97900;-78
2022/06/05 06:43:17;;;;;;;8.10;5.70;;;;;;;23.70;55.02;100527.59;20789421;27;98967;-79
2022/06/05 06:53:17;;;;;;;8.32;6.53;;;;;;;23.65;55.15;100520.06;20758787;27;97794;-77
2022/06/05 07:03:18;;;;;;;6.28;5.30;;;;;;;23.73;54.96;100507.97;20780229;27;97068;-77
2022/06/05 07:13:19;;;;;;;7.60;5.45;;;;;;;23.80;55.00;100495.91;20768941;27;100376;-80
2022/06/05 07:23:20;;;;;;;8.70;5.27;;;;;;;23.95;55.08;100514.94;20775882;27;97266;-77
2022/06/05 07:33:20;;;;;;;5.50;4.40;;;;;;;23.97;54.31;100518.28;20776725;27;97381;-76
2022/06/05 07:43:21;;;;;;;5.18;4.68;;;;;;;24.09;54.15;100513.72;20795416;27;100260;-78
2022/06/05 08:03:40;;;;;;;6.53;5.40;;;;;;;24.27;54.13;100533.25;20773064;27;100056;-78
2022/06/05 08:13:41;;;;;;;5.73;4.50;;;;;;;24.34;53.96;100536.22;20779159;27;100279;-78
2022/06/05 08:23:42;;;;;;;5.25;4.75;;;;;;;24.39;54.10;100541.06;20768773;27;97485;-77
2022/06/05 08:33:44;;;;;;;11.13;5.00;;;;;;;24.42;53.02;100536.34;20781395;27;98252;-77
2022/06/05 08:44:09;;;;;;;6.97;5.57;;;;;;;24.42;53.82;100548.75;20796451;27;98295;-77
2022/06/05 08:54:22;;;;;;;6.28;5.38;;;;;;;24.48;53.71;100534.16;20772196;27;98411;-77
2022/06/05 09:04:30;;;;;;;7.53;6.60;;;;;;;24.52;53.88;100531.06;20735085;27;100242;-76
2022/06/05 09:14:42;;;;;;;7.93;5.88;;;;;;;24.59;53.28;100536.66;20757771;27;97852;-75
2022/06/05 09:25:05;;;;;;;6.65;5.95;;;;;;;24.65;52.86;100524.69;20765179;27;101086;-73
2022/06/05 09:35:11;;;;;;;7.22;5.78;;;;;;;24.65;51.72;100544.03;20768922;27;96924;-76
2022/06/05 09:45:28;;;;;;;5.88;5.22;;;;;;;24.66;50.83;100547.53;20738108;27;99300;-76
2022/06/05 09:55:47;;;;;;;11.35;5.40;;;;;;;24.71;49.76;100546.16;20746343;27;103632;-73
2022/06/05 10:06:19;;;;;;;5.63;4.00;;;;;;;24.85;49.48;100566.13;20764294;27;98646;-76
2022/06/05 10:16:39;;;;;;;;;;;;;;;24.85;47.16;100557.31;20780099;27;98539;-78
2022/06/05 10:26:47;;;;;;;7.28;4.43;;;;;;;24.98;47.30;100557.06;20763163;27;99470;-79
2022/06/05 10:36:58;;;;;;;4.72;3.25;;;;;;;25.10;46.29;100540.03;20767138;27;100294;-75
2022/06/05 10:47:10;;;;;;;5.43;4.07;;;;;;;25.16;47.11;100535.97;20800388;27;98031;-73
2022/06/05 10:57:28;;;;;;;8.60;4.07;;;;;;;25.21;46.94;100515.19;20793258;27;99038;-74
2022/06/05 11:07:54;;;;;;;5.35;4.53;;;;;;;25.30;47.33;100509.03;20759589;27;100838;-77
2022/06/05 11:18:14;;;;;;;5.80;3.80;;;;;;;25.39;46.89;100502.91;20774499;27;100012;-76
2022/06/05 11:28:29;;;;;;;8.50;4.60;;;;;;;25.49;45.76;100500.22;20773303;27;97894;-76
2022/06/05 11:38:33;;;;;;;5.20;4.40;;;;;;;25.65;45.84;100483.69;20766672;27;97814;-76
2022/06/05 11:49:06;;;;;;;4.47;4.07;;;;;;;25.68;45.51;100490.53;20777536;27;98640;-77
2022/06/05 11:59:35;;;;;;;4.68;4.00;;;;;;;25.77;44.64;100465.78;20763176;27;98206;-79
2022/06/05 12:09:58;;;;;;;5.55;3.75;;;;;;;25.93;43.65;100459.81;20797685;27;98454;-80
2022/06/05 12:20:08;;;;;;;4.82;3.53;;;;;;;26.02;43.03;100442.19;20761152;27;101413;-79
2022/06/05 12:30:20;;;;;;;5.47;3.38;;;;;;;26.06;42.98;100417.00;20803318;27;98698;-78
2022/06/05 12:40:29;;;;;;;4.10;3.70;;;;;;;26.07;41.63;100400.13;20784387;27;97943;-80
2022/06/05 12:50:38;;;;;;;4.95;4.32;;;;;;;26.10;41.23;100383.91;20782111;27;98653;-81
2022/06/05 13:01:14;;;;;;;6.03;4.00;;;;;;;26.18;41.02;100381.34;20775180;27;98257;-79
2022/06/05 13:11:37;;;;;;;5.10;3.78;;;;;;;26.19;40.29;100380.34;20770680;27;97980;-79
2022/06/05 13:21:58;;;;;;;4.60;3.60;;;;;;;26.18;41.31;100368.06;20795877;27;97812;-80
2022/06/05 13:32:18;;;;;;;3.60;3.30;;;;;;;26.13;39.97;100370.34;20797127;27;97602;-81
2022/06/05 13:42:22;;;;;;;6.25;3.47;;;;;;;26.14;40.65;100347.31;20804524;27;100543;-77
2022/06/05 13:52:38;;;;;;;8.48;3.75;;;;;;;26.21;42.24;100345.69;20779099;27;97762;-77
2022/06/05 14:02:44;;;;;;;3.90;3.60;;;;;;;26.20;41.48;100334.25;20625223;28;97144;-77
2022/06/05 14:12:56;;;;;;;8.18;3.72;;;;;;;26.21;41.80;100317.34;20646595;28;98384;-79
2022/06/05 14:22:57;;;;;;;5.38;3.60;;;;;;;26.27;41.16;100320.34;20645452;28;98841;-78
2022/06/05 14:33:01;;;;;;;4.70;3.67;;;;;;;26.31;40.99;100303.16;20648668;28;97868;-78
2022/06/05 14:43:14;;;;;;;3.72;3.42;;;;;;;26.40;40.54;100307.50;20634834;28;97812;-82
2022/06/05 14:53:34;;;;;;;3.85;3.45;;;;;;;26.47;40.28;100294.47;20659620;27;97648;-82
2022/06/05 15:03:54;;;;;;;3.80;3.45;;;;;;;26.48;39.75;100267.75;20781791;27;97339;-82
2022/06/05 15:14:14;;;;;;;3.67;3.38;;;;;;;26.49;39.23;100266.75;20803621;27;97981;-78
2022/06/05 15:24:25;;;;;;;4.10;3.70;;;;;;;26.55;38.85;100259.16;20798513;27;101179;-78
2022/06/05 15:34:56;;;;;;;3.80;3.50;;;;;;;26.59;38.59;100257.84;20807448;27;97741;-78
2022/06/05 15:45:22;;;;;;;5.25;4.30;;;;;;;26.62;38.02;100254.88;20784262;27;100425;-80
2022/06/05 15:55:29;;;;;;;4.78;4.35;;;;;;;26.66;37.74;100242.97;20807135;27;97181;-80
2022/06/05 16:05:49;;;;;;;7.00;6.30;;;;;;;26.66;38.66;100217.22;20806728;27;97757;-79
2022/06/05 16:16:14;;;;;;;11.02;4.70;;;;;;;26.63;38.76;100222.00;20796979;27;99661;-79
2022/06/05 16:27:01;;;;;;;7.85;4.00;;;;;;;26.60;39.36;100228.47;20765065;27;98466;-76
2022/06/05 16:47:34;;;;;;;6.68;4.53;;;;;;;26.71;41.15;100237.16;20752768;27;101037;-84
2022/06/05 16:57:47;;;;;;;6.18;4.88;;;;;;;26.67;38.49;100234.81;20747155;27;97813;-77
2022/06/05 17:07:50;;;;;;;9.23;4.10;;;;;;;26.57;37.20;100241.25;20769754;27;98443;-77
2022/06/05 17:18:13;;;;;;;5.00;4.55;;;;;;;26.57;38.04;100236.75;20802495;27;97182;-78
2022/06/05 17:28:28;;;;;;;10.00;7.43;;;;;;;26.56;37.62;100227.13;20813377;27;97276;-78
2022/06/05 17:38:48;;;;;;;11.63;5.13;;;;;;;26.51;38.07;100222.31;20778224;27;97634;-76
2022/06/05 17:49:24;;;;;;;4.93;4.47;;;;;;;26.47;37.73;100223.59;20810710;27;99959;-78
2022/06/05 17:59:37;;;;;;;6.40;4.90;;;;;;;26.43;38.60;100197.53;20816950;27;98516;-80
2022/06/05 18:09:54;;;;;;;6.72;5.22;;;;;;;26.23;37.88;100195.09;20811241;27;97820;-77
2022/06/05 18:19:56;;;;;;;5.15;4.63;;;;;;;25.88;38.02;100210.09;20780839;27;100574;-78
2022/06/05 18:30:01;;;;;;;5.05;4.55;;;;;;;25.80;39.45;100212.69;20766502;27;97886;-77
2022/06/05 18:40:16;;;;;;;9.38;5.93;;;;;;;25.55;39.52;100212.47;20787726;27;98473;-77
2022/06/05 18:50:34;;;;;;;7.95;5.40;;;;;;;25.70;39.57;100220.72;20750610;27;98959;-81
2022/06/05 19:00:35;;;;;;;7.20;5.35;;;;;;;25.68;39.89;100228.00;20784882;27;101076;-81
2022/06/05 19:10:36;;;;;;;9.52;5.07;;;;;;;25.12;40.91;100246.66;20754163;27;100537;-75
2022/06/05 19:20:45;;;;;;;5.50;4.90;;;;;;;25.19;41.04;100255.63;20773620;27;99630;-75
2022/06/05 19:30:51;;;;;;;7.13;6.15;;;;;;;25.21;40.82;100266.94;20790687;27;99900;-74
2022/06/05 19:41:10;;;;;;;6.40;5.75;;;;;;;25.02;40.90;100285.59;20797194;27;97690;-74
2022/06/05 19:51:16;;;;;;;8.88;6.07;;;;;;;24.96;40.80;100300.25;20783323;27;98294;-75
2022/06/05 20:01:44;;;;;;;5.90;5.32;;;;;;;24.73;41.41;100313.00;20795094;27;101225;-75
2022/06/05 20:11:52;;;;;;;6.30;5.70;;;;;;;24.48;42.23;100320.56;20795852;27;97996;-75
2022/06/05 20:21:59;;;;;;;6.07;5.55;;;;;;;24.89;41.34;100315.03;20769771;27;97540;-75
2022/06/05 20:32:02;;;;;;;6.68;5.75;;;;;;;24.68;42.03;100317.91;20783855;27;101096;-75
2022/06/05 20:42:16;;;;;;;6.38;5.45;;;;;;;24.79;41.80;100301.84;20787939;27;97160;-75
2022/06/05 20:52:23;;;;;;;5.50;5.00;;;;;;;24.94;41.75;100281.84;20785850;27;97736;-75
2022/06/05 21:23:12;;;;;;;5.53;4.97;;;;;;;24.86;42.06;100251.78;20792840;27;99810;-74
2022/06/05 21:33:12;;;;;;;5.72;5.07;;;;;;;24.94;42.15;100271.25;20765655;27;101542;-75
2022/06/05 21:43:21;;;;;;;6.05;4.80;;;;;;;25.00;42.45;100296.34;20783519;27;97992;-75
2022/06/05 21:53:36;;;;;;;5.72;5.22;;;;;;;25.01;41.94;100298.00;20757484;27;98210;-75
2022/06/05 22:03:38;;;;;;;5.22;4.53;;;;;;;25.12;42.89;100318.19;20793713;27;97539;-76
2022/06/05 22:13:42;;;;;;;4.63;4.22;;;;;;;25.19;42.56;100327.19;20798279;27;98458;-76
2022/06/05 22:23:42;;;;;;;5.13;4.38;;;;;;;25.23;42.45;100328.56;20793983;27;100913;-76
2022/06/05 22:33:45;;;;;;;13.40;4.40;;;;;;;25.28;42.72;100322.00;20780293;27;97861;-75
2022/06/05 22:43:45;;;;;;;4.93;4.35;;;;;;;25.30;42.52;100298.84;20777633;27;97536;-76
2022/06/05 22:53:46;;;;;;;4.27;3.90;;;;;;;25.29;42.04;100297.97;20785438;27;97838;-75
2022/06/05 23:03:47;;;;;;;4.10;3.70;;;;;;;25.30;42.22;100298.84;20785846;27;99746;-75
2022/06/05 23:13:50;;;;;;;3.93;3.57;;;;;;;25.32;41.85;100281.78;20792569;27;100309;-76
2022/06/05 23:23:51;;;;;;;3.65;3.35;;;;;;;25.32;41.57;100241.22;20784512;27;98196;-76
2022/06/05 23:33:51;;;;;;;3.90;3.60;;;;;;;25.33;41.55;100221.66;20787877;27;99963;-75
2022/06/05 23:43:53;;;;;;;4.00;3.30;;;;;;;25.33;41.36;100237.56;20777516;27;101385;-75
2022/06/05 23:53:53;;;;;;;3.40;3.10;;;;;;;25.32;41.45;100257.13;20785448;27;100155;-76
